sensor_id;sensor_type;location;lat;lon;timestamp;P1;durP1;ratioP1;P2;durP2;ratioP2
48629;SDS011;34426;52.180;4.462;2022-12-18T00:00:48;125.22;;;51.92;;
48629;SDS011;34426;52.180;4.462;2022-12-18T00:03:15;120.53;;;53.05;;
48629;SDS011;34426;52.180;4.462;2022-12-18T00:05:46;117.90;;;52.72;;
48629;SDS011;34426;52.180;4.462;2022-12-18T00:08:14;115.57;;;49.50;;
48629;SDS011;34426;52.180;4.462;2022-12-18T00:10:43;118.90;;;50.22;;
48629;SDS011;34426;52.180;4.462;2022-12-18T00:13:11;114.93;;;50.17;;
48629;SDS011;34426;52.180;4.462;2022-12-18T00:15:39;126.93;;;52.33;;
48629;SDS011;34426;52.180;4.462;2022-12-18T00:18:06;126.03;;;55.33;;
48629;SDS011;34426;52.180;4.462;2022-12-18T00:20:35;131.35;;;51.40;;
48629;SDS011;34426;52.180;4.462;2022-12-18T00:23:04;119.95;;;50.13;;
48629;SDS011;34426;52.180;4.462;2022-12-18T00:25:33;119.05;;;49.90;;
48629;SDS011;34426;52.180;4.462;2022-12-18T00:28:02;106.10;;;46.30;;
48629;SDS011;34426;52.180;4.462;2022-12-18T00:30:30;144.57;;;49.30;;
48629;SDS011;34426;52.180;4.462;2022-12-18T00:32:58;105.60;;;47.10;;
48629;SDS011;34426;52.180;4.462;2022-12-18T00:35:25;108.63;;;47.88;;
48629;SDS011;34426;52.180;4.462;2022-12-18T00:37:52;111.88;;;48.78;;
48629;SDS011;34426;52.180;4.462;2022-12-18T00:40:19;109.18;;;46.08;;
48629;SDS011;34426;52.180;4.462;2022-12-18T00:42:46;108.43;;;47.60;;
48629;SDS011;34426;52.180;4.462;2022-12-18T00:45:15;101.43;;;47.38;;
48629;SDS011;34426;52.180;4.462;2022-12-18T00:47:43;107.60;;;46.00;;
48629;SDS011;34426;52.180;4.462;2022-12-18T00:50:10;116.22;;;48.33;;
48629;SDS011;34426;52.180;4.462;2022-12-18T00:52:41;104.20;;;47.30;;
48629;SDS011;34426;52.180;4.462;2022-12-18T00:55:09;114.50;;;46.17;;
48629;SDS011;34426;52.180;4.462;2022-12-18T00:57:36;120.05;;;49.10;;
48629;SDS011;34426;52.180;4.462;2022-12-18T01:00:04;118.28;;;49.50;;
48629;SDS011;34426;52.180;4.462;2022-12-18T01:02:35;121.32;;;50.17;;
48629;SDS011;34426;52.180;4.462;2022-12-18T01:05:03;124.50;;;48.58;;
48629;SDS011;34426;52.180;4.462;2022-12-18T01:07:31;135.20;;;54.28;;
48629;SDS011;34426;52.180;4.462;2022-12-18T01:09:58;130.30;;;53.30;;
48629;SDS011;34426;52.180;4.462;2022-12-18T01:12:25;123.90;;;50.67;;
48629;SDS011;34426;52.180;4.462;2022-12-18T01:14:53;123.53;;;48.85;;
48629;SDS011;34426;52.180;4.462;2022-12-18T01:17:20;118.82;;;47.90;;
48629;SDS011;34426;52.180;4.462;2022-12-18T01:19:49;134.70;;;48.47;;
48629;SDS011;34426;52.180;4.462;2022-12-18T01:22:16;125.88;;;50.72;;
48629;SDS011;34426;52.180;4.462;2022-12-18T01:24:43;127.72;;;50.95;;
48629;SDS011;34426;52.180;4.462;2022-12-18T01:27:10;123.55;;;48.80;;
48629;SDS011;34426;52.180;4.462;2022-12-18T01:29:37;112.13;;;49.40;;
48629;SDS011;34426;52.180;4.462;2022-12-18T01:32:05;131.73;;;49.55;;
48629;SDS011;34426;52.180;4.462;2022-12-18T01:34:32;124.05;;;48.88;;
48629;SDS011;34426;52.180;4.462;2022-12-18T01:37:04;122.32;;;48.88;;
48629;SDS011;34426;52.180;4.462;2022-12-18T01:39:32;115.05;;;47.08;;
48629;SDS011;34426;52.180;4.462;2022-12-18T01:41:59;120.05;;;47.17;;
48629;SDS011;34426;52.180;4.462;2022-12-18T01:47:47;118.00;;;47.08;;
48629;SDS011;34426;52.180;4.462;2022-12-18T01:50:18;110.95;;;46.53;;
48629;SDS011;34426;52.180;4.462;2022-12-18T01:52:51;109.53;;;45.78;;
48629;SDS011;34426;52.180;4.462;2022-12-18T01:55:22;103.95;;;45.45;;
48629;SDS011;34426;52.180;4.462;2022-12-18T01:57:52;107.63;;;43.60;;
48629;SDS011;34426;52.180;4.462;2022-12-18T02:00:21;107.30;;;45.47;;
48629;SDS011;34426;52.180;4.462;2022-12-18T02:02:49;102.40;;;45.45;;
48629;SDS011;34426;52.180;4.462;2022-12-18T02:05:18;116.57;;;45.53;;
48629;SDS011;34426;52.180;4.462;2022-12-18T02:07:55;108.93;;;45.50;;
48629;SDS011;34426;52.180;4.462;2022-12-18T02:10:30;119.65;;;45.33;;
48629;SDS011;34426;52.180;4.462;2022-12-18T02:13:08;109.35;;;44.47;;
48629;SDS011;34426;52.180;4.462;2022-12-18T02:15:41;102.15;;;44.03;;
48629;SDS011;34426;52.180;4.462;2022-12-18T02:18:18;106.45;;;45.15;;
48629;SDS011;34426;52.180;4.462;2022-12-18T02:20:48;98.20;;;42.83;;
48629;SDS011;34426;52.180;4.462;2022-12-18T02:23:24;104.43;;;42.38;;
48629;SDS011;34426;52.180;4.462;2022-12-18T02:26:09;107.10;;;44.22;;
48629;SDS011;34426;52.180;4.462;2022-12-18T02:28:45;103.65;;;44.67;;
48629;SDS011;34426;52.180;4.462;2022-12-18T02:31:17;101.15;;;44.15;;
48629;SDS011;34426;52.180;4.462;2022-12-18T02:33:51;110.93;;;45.50;;
48629;SDS011;34426;52.180;4.462;2022-12-18T02:36:25;102.95;;;43.90;;
48629;SDS011;34426;52.180;4.462;2022-12-18T02:38:55;92.82;;;41.05;;
48629;SDS011;34426;52.180;4.462;2022-12-18T02:41:26;88.57;;;40.03;;
48629;SDS011;34426;52.180;4.462;2022-12-18T02:43:55;84.05;;;38.13;;
48629;SDS011;34426;52.180;4.462;2022-12-18T02:46:30;94.90;;;38.25;;
48629;SDS011;34426;52.180;4.462;2022-12-18T02:49:09;83.97;;;38.45;;
48629;SDS011;34426;52.180;4.462;2022-12-18T02:51:48;81.32;;;36.22;;
48629;SDS011;34426;52.180;4.462;2022-12-18T02:54:21;87.77;;;38.93;;
48629;SDS011;34426;52.180;4.462;2022-12-18T02:57:01;83.38;;;38.28;;
48629;SDS011;34426;52.180;4.462;2022-12-18T02:59:39;86.72;;;38.15;;
48629;SDS011;34426;52.180;4.462;2022-12-18T03:02:16;92.40;;;39.10;;
48629;SDS011;34426;52.180;4.462;2022-12-18T03:04:48;89.75;;;39.97;;
48629;SDS011;34426;52.180;4.462;2022-12-18T03:07:21;95.70;;;43.15;;
48629;SDS011;34426;52.180;4.462;2022-12-18T03:09:53;85.50;;;40.15;;
48629;SDS011;34426;52.180;4.462;2022-12-18T03:12:24;79.28;;;35.70;;
48629;SDS011;34426;52.180;4.462;2022-12-18T03:14:57;81.10;;;36.55;;
48629;SDS011;34426;52.180;4.462;2022-12-18T03:17:30;91.20;;;40.03;;
48629;SDS011;34426;52.180;4.462;2022-12-18T03:20:01;87.88;;;40.70;;
48629;SDS011;34426;52.180;4.462;2022-12-18T03:22:31;88.72;;;39.35;;
48629;SDS011;34426;52.180;4.462;2022-12-18T03:25:01;80.25;;;38.88;;
48629;SDS011;34426;52.180;4.462;2022-12-18T03:27:33;78.60;;;36.90;;
48629;SDS011;34426;52.180;4.462;2022-12-18T03:30:05;85.57;;;39.53;;
48629;SDS011;34426;52.180;4.462;2022-12-18T03:32:36;86.18;;;38.88;;
48629;SDS011;34426;52.180;4.462;2022-12-18T03:35:08;78.80;;;37.00;;
48629;SDS011;34426;52.180;4.462;2022-12-18T03:37:38;94.18;;;38.67;;
48629;SDS011;34426;52.180;4.462;2022-12-18T03:40:06;84.40;;;39.75;;
48629;SDS011;34426;52.180;4.462;2022-12-18T03:42:39;85.43;;;39.58;;
48629;SDS011;34426;52.180;4.462;2022-12-18T03:45:15;89.95;;;39.17;;
48629;SDS011;34426;52.180;4.462;2022-12-18T03:47:51;87.55;;;40.47;;
48629;SDS011;34426;52.180;4.462;2022-12-18T03:50:26;98.65;;;41.75;;
48629;SDS011;34426;52.180;4.462;2022-12-18T03:53:04;101.47;;;42.25;;
48629;SDS011;34426;52.180;4.462;2022-12-18T03:55:41;93.85;;;40.65;;
48629;SDS011;34426;52.180;4.462;2022-12-18T03:58:11;96.32;;;41.25;;
48629;SDS011;34426;52.180;4.462;2022-12-18T04:00:43;88.38;;;40.85;;
48629;SDS011;34426;52.180;4.462;2022-12-18T04:03:12;93.65;;;42.25;;
48629;SDS011;34426;52.180;4.462;2022-12-18T04:05:42;98.28;;;42.05;;
48629;SDS011;34426;52.180;4.462;2022-12-18T04:08:11;88.47;;;40.20;;
48629;SDS011;34426;52.180;4.462;2022-12-18T04:10:39;103.68;;;42.95;;
48629;SDS011;34426;52.180;4.462;2022-12-18T04:13:06;93.40;;;40.40;;
48629;SDS011;34426;52.180;4.462;2022-12-18T04:15:36;97.35;;;42.85;;
48629;SDS011;34426;52.180;4.462;2022-12-18T04:18:04;92.25;;;39.78;;
48629;SDS011;34426;52.180;4.462;2022-12-18T04:20:32;102.72;;;41.45;;
48629;SDS011;34426;52.180;4.462;2022-12-18T04:22:59;100.45;;;41.03;;
48629;SDS011;34426;52.180;4.462;2022-12-18T04:25:26;91.05;;;41.25;;
48629;SDS011;34426;52.180;4.462;2022-12-18T04:27:53;89.88;;;41.28;;
48629;SDS011;34426;52.180;4.462;2022-12-18T04:30:21;100.38;;;40.80;;
48629;SDS011;34426;52.180;4.462;2022-12-18T04:32:50;99.10;;;40.88;;
48629;SDS011;34426;52.180;4.462;2022-12-18T04:35:18;98.63;;;41.67;;
48629;SDS011;34426;52.180;4.462;2022-12-18T04:37:46;99.35;;;42.67;;
48629;SDS011;34426;52.180;4.462;2022-12-18T04:40:13;96.28;;;41.95;;
48629;SDS011;34426;52.180;4.462;2022-12-18T04:42:41;95.45;;;39.80;;
48629;SDS011;34426;52.180;4.462;2022-12-18T04:45:08;93.65;;;41.85;;
48629;SDS011;34426;52.180;4.462;2022-12-18T04:47:36;104.60;;;42.00;;
48629;SDS011;34426;52.180;4.462;2022-12-18T04:50:05;97.88;;;40.92;;
48629;SDS011;34426;52.180;4.462;2022-12-18T04:52:33;97.40;;;41.08;;
48629;SDS011;34426;52.180;4.462;2022-12-18T04:55:00;100.88;;;42.10;;
48629;SDS011;34426;52.180;4.462;2022-12-18T04:57:28;109.10;;;43.20;;
48629;SDS011;34426;52.180;4.462;2022-12-18T04:59:55;103.70;;;43.03;;
48629;SDS011;34426;52.180;4.462;2022-12-18T05:02:22;98.15;;;41.90;;
48629;SDS011;34426;52.180;4.462;2022-12-18T05:04:50;100.78;;;41.17;;
48629;SDS011;34426;52.180;4.462;2022-12-18T05:07:19;98.65;;;42.72;;
48629;SDS011;34426;52.180;4.462;2022-12-18T05:09:46;96.65;;;39.42;;
48629;SDS011;34426;52.180;4.462;2022-12-18T05:12:13;87.78;;;39.05;;
48629;SDS011;34426;52.180;4.462;2022-12-18T05:14:41;94.93;;;39.97;;
48629;SDS011;34426;52.180;4.462;2022-12-18T05:17:08;97.20;;;40.03;;
48629;SDS011;34426;52.180;4.462;2022-12-18T05:19:38;91.03;;;37.58;;
48629;SDS011;34426;52.180;4.462;2022-12-18T05:22:09;88.38;;;40.92;;
48629;SDS011;34426;52.180;4.462;2022-12-18T05:24:38;94.00;;;40.00;;
48629;SDS011;34426;52.180;4.462;2022-12-18T05:27:05;92.47;;;39.95;;
48629;SDS011;34426;52.180;4.462;2022-12-18T05:29:33;92.82;;;39.88;;
48629;SDS011;34426;52.180;4.462;2022-12-18T05:32:00;90.70;;;39.22;;
48629;SDS011;34426;52.180;4.462;2022-12-18T05:34:27;87.10;;;39.17;;
48629;SDS011;34426;52.180;4.462;2022-12-18T05:36:55;79.10;;;36.35;;
48629;SDS011;34426;52.180;4.462;2022-12-18T05:39:22;77.50;;;36.50;;
48629;SDS011;34426;52.180;4.462;2022-12-18T05:41:51;77.25;;;36.65;;
48629;SDS011;34426;52.180;4.462;2022-12-18T05:44:18;84.50;;;36.47;;
48629;SDS011;34426;52.180;4.462;2022-12-18T05:46:46;87.45;;;38.88;;
48629;SDS011;34426;52.180;4.462;2022-12-18T05:49:13;76.25;;;36.03;;
48629;SDS011;34426;52.180;4.462;2022-12-18T05:51:40;77.13;;;37.55;;
48629;SDS011;34426;52.180;4.462;2022-12-18T05:54:07;91.65;;;39.10;;
48629;SDS011;34426;52.180;4.462;2022-12-18T05:56:35;72.95;;;35.85;;
48629;SDS011;34426;52.180;4.462;2022-12-18T05:59:03;79.95;;;37.50;;
48629;SDS011;34426;52.180;4.462;2022-12-18T06:01:30;79.70;;;38.90;;
48629;SDS011;34426;52.180;4.462;2022-12-18T06:03:58;80.88;;;35.25;;
48629;SDS011;34426;52.180;4.462;2022-12-18T06:06:26;81.63;;;38.38;;
48629;SDS011;34426;52.180;4.462;2022-12-18T06:08:54;77.10;;;36.67;;
48629;SDS011;34426;52.180;4.462;2022-12-18T06:11:22;88.30;;;38.55;;
48629;SDS011;34426;52.180;4.462;2022-12-18T06:13:50;76.88;;;37.60;;
48629;SDS011;34426;52.180;4.462;2022-12-18T06:16:20;83.60;;;38.92;;
48629;SDS011;34426;52.180;4.462;2022-12-18T06:18:48;76.07;;;37.78;;
48629;SDS011;34426;52.180;4.462;2022-12-18T06:21:15;83.40;;;38.60;;
48629;SDS011;34426;52.180;4.462;2022-12-18T06:23:42;82.50;;;38.13;;
48629;SDS011;34426;52.180;4.462;2022-12-18T06:26:10;83.32;;;40.03;;
48629;SDS011;34426;52.180;4.462;2022-12-18T06:28:38;80.72;;;39.33;;
48629;SDS011;34426;52.180;4.462;2022-12-18T06:31:06;83.13;;;38.85;;
48629;SDS011;34426;52.180;4.462;2022-12-18T06:33:36;87.28;;;41.15;;
48629;SDS011;34426;52.180;4.462;2022-12-18T06:36:04;90.50;;;40.05;;
48629;SDS011;34426;52.180;4.462;2022-12-18T06:38:34;75.93;;;37.38;;
48629;SDS011;34426;52.180;4.462;2022-12-18T06:41:06;82.90;;;38.22;;
48629;SDS011;34426;52.180;4.462;2022-12-18T06:43:33;82.30;;;39.72;;
48629;SDS011;34426;52.180;4.462;2022-12-18T06:46:01;78.47;;;36.78;;
48629;SDS011;34426;52.180;4.462;2022-12-18T06:48:30;82.28;;;37.83;;
48629;SDS011;34426;52.180;4.462;2022-12-18T06:50:59;76.13;;;37.45;;
48629;SDS011;34426;52.180;4.462;2022-12-18T06:53:27;83.95;;;38.13;;
48629;SDS011;34426;52.180;4.462;2022-12-18T06:55:59;75.13;;;38.22;;
48629;SDS011;34426;52.180;4.462;2022-12-18T07:00:53;74.15;;;34.88;;
48629;SDS011;34426;52.180;4.462;2022-12-18T07:03:25;71.50;;;35.88;;
48629;SDS011;34426;52.180;4.462;2022-12-18T07:05:52;68.65;;;36.05;;
48629;SDS011;34426;52.180;4.462;2022-12-18T07:08:22;65.80;;;34.60;;
48629;SDS011;34426;52.180;4.462;2022-12-18T07:10:49;70.88;;;35.03;;
48629;SDS011;34426;52.180;4.462;2022-12-18T07:13:16;64.85;;;33.00;;
48629;SDS011;34426;52.180;4.462;2022-12-18T07:15:44;62.47;;;33.80;;
48629;SDS011;34426;52.180;4.462;2022-12-18T07:18:11;67.05;;;33.90;;
48629;SDS011;34426;52.180;4.462;2022-12-18T07:20:38;66.50;;;32.90;;
48629;SDS011;34426;52.180;4.462;2022-12-18T07:23:05;58.78;;;33.28;;
48629;SDS011;34426;52.180;4.462;2022-12-18T07:25:35;60.70;;;31.00;;
48629;SDS011;34426;52.180;4.462;2022-12-18T07:28:03;65.22;;;33.35;;
48629;SDS011;34426;52.180;4.462;2022-12-18T07:30:30;65.35;;;32.40;;
48629;SDS011;34426;52.180;4.462;2022-12-18T07:32:58;58.35;;;31.55;;
48629;SDS011;34426;52.180;4.462;2022-12-18T07:35:25;59.95;;;30.88;;
48629;SDS011;34426;52.180;4.462;2022-12-18T07:37:52;57.15;;;29.90;;
48629;SDS011;34426;52.180;4.462;2022-12-18T07:40:20;57.80;;;30.42;;
48629;SDS011;34426;52.180;4.462;2022-12-18T07:42:49;54.22;;;28.27;;
48629;SDS011;34426;52.180;4.462;2022-12-18T07:45:16;65.78;;;31.25;;
48629;SDS011;34426;52.180;4.462;2022-12-18T07:47:43;54.05;;;29.85;;
48629;SDS011;34426;52.180;4.462;2022-12-18T07:50:10;60.83;;;28.90;;
48629;SDS011;34426;52.180;4.462;2022-12-18T07:52:37;58.55;;;28.02;;
48629;SDS011;34426;52.180;4.462;2022-12-18T07:55:05;51.05;;;27.83;;
48629;SDS011;34426;52.180;4.462;2022-12-18T07:57:32;48.55;;;26.10;;
48629;SDS011;34426;52.180;4.462;2022-12-18T08:00:02;46.97;;;26.73;;
48629;SDS011;34426;52.180;4.462;2022-12-18T08:02:30;54.47;;;30.23;;
48629;SDS011;34426;52.180;4.462;2022-12-18T08:04:57;51.90;;;28.98;;
48629;SDS011;34426;52.180;4.462;2022-12-18T08:07:25;53.33;;;28.95;;
48629;SDS011;34426;52.180;4.462;2022-12-18T08:09:52;49.40;;;27.73;;
48629;SDS011;34426;52.180;4.462;2022-12-18T08:12:20;48.15;;;26.38;;
48629;SDS011;34426;52.180;4.462;2022-12-18T08:14:47;46.78;;;27.23;;
48629;SDS011;34426;52.180;4.462;2022-12-18T08:17:16;48.10;;;27.13;;
48629;SDS011;34426;52.180;4.462;2022-12-18T08:19:44;48.72;;;27.77;;
48629;SDS011;34426;52.180;4.462;2022-12-18T08:22:12;43.58;;;27.17;;
48629;SDS011;34426;52.180;4.462;2022-12-18T08:24:39;46.40;;;26.33;;
48629;SDS011;34426;52.180;4.462;2022-12-18T08:27:06;46.72;;;28.80;;
48629;SDS011;34426;52.180;4.462;2022-12-18T08:29:34;54.60;;;27.13;;
48629;SDS011;34426;52.180;4.462;2022-12-18T08:32:01;56.85;;;28.63;;
48629;SDS011;34426;52.180;4.462;2022-12-18T08:34:31;50.92;;;27.42;;
48629;SDS011;34426;52.180;4.462;2022-12-18T08:36:58;51.30;;;27.77;;
48629;SDS011;34426;52.180;4.462;2022-12-18T08:39:25;46.40;;;26.67;;
48629;SDS011;34426;52.180;4.462;2022-12-18T08:41:53;42.03;;;27.00;;
48629;SDS011;34426;52.180;4.462;2022-12-18T08:44:21;47.85;;;27.20;;
48629;SDS011;34426;52.180;4.462;2022-12-18T08:46:48;42.40;;;26.77;;
48629;SDS011;34426;52.180;4.462;2022-12-18T08:49:15;43.42;;;25.88;;
48629;SDS011;34426;52.180;4.462;2022-12-18T08:51:44;40.42;;;24.38;;
48629;SDS011;34426;52.180;4.462;2022-12-18T08:54:11;45.53;;;26.58;;
48629;SDS011;34426;52.180;4.462;2022-12-18T08:56:38;44.13;;;26.17;;
48629;SDS011;34426;52.180;4.462;2022-12-18T08:59:06;43.08;;;26.10;;
48629;SDS011;34426;52.180;4.462;2022-12-18T09:01:34;44.22;;;26.02;;
48629;SDS011;34426;52.180;4.462;2022-12-18T09:04:01;42.95;;;25.02;;
48629;SDS011;34426;52.180;4.462;2022-12-18T09:06:28;45.30;;;25.52;;
48629;SDS011;34426;52.180;4.462;2022-12-18T09:08:58;42.03;;;24.10;;
48629;SDS011;34426;52.180;4.462;2022-12-18T09:11:26;48.00;;;26.08;;
48629;SDS011;34426;52.180;4.462;2022-12-18T09:13:54;44.55;;;27.63;;
48629;SDS011;34426;52.180;4.462;2022-12-18T09:16:24;41.28;;;24.70;;
48629;SDS011;34426;52.180;4.462;2022-12-18T09:18:52;48.88;;;26.10;;
48629;SDS011;34426;52.180;4.462;2022-12-18T09:21:20;42.85;;;24.83;;
48629;SDS011;34426;52.180;4.462;2022-12-18T09:23:49;44.15;;;24.63;;
48629;SDS011;34426;52.180;4.462;2022-12-18T09:26:18;37.92;;;24.55;;
48629;SDS011;34426;52.180;4.462;2022-12-18T09:28:46;38.28;;;23.98;;
48629;SDS011;34426;52.180;4.462;2022-12-18T09:31:15;38.50;;;23.92;;
48629;SDS011;34426;52.180;4.462;2022-12-18T09:33:43;40.65;;;24.73;;
48629;SDS011;34426;52.180;4.462;2022-12-18T09:36:10;38.40;;;23.05;;
48629;SDS011;34426;52.180;4.462;2022-12-18T09:38:39;36.67;;;21.20;;
48629;SDS011;34426;52.180;4.462;2022-12-18T09:41:13;38.78;;;23.48;;
48629;SDS011;34426;52.180;4.462;2022-12-18T09:43:52;35.65;;;22.67;;
48629;SDS011;34426;52.180;4.462;2022-12-18T09:46:23;37.15;;;23.13;;
48629;SDS011;34426;52.180;4.462;2022-12-18T09:48:56;39.67;;;23.65;;
48629;SDS011;34426;52.180;4.462;2022-12-18T09:51:27;39.03;;;22.17;;
48629;SDS011;34426;52.180;4.462;2022-12-18T09:53:59;35.25;;;21.60;;
48629;SDS011;34426;52.180;4.462;2022-12-18T09:56:31;40.05;;;22.13;;
48629;SDS011;34426;52.180;4.462;2022-12-18T09:59:03;37.10;;;22.60;;
48629;SDS011;34426;52.180;4.462;2022-12-18T10:01:32;35.38;;;22.15;;
48629;SDS011;34426;52.180;4.462;2022-12-18T10:03:59;32.05;;;21.77;;
48629;SDS011;34426;52.180;4.462;2022-12-18T10:06:29;36.38;;;22.30;;
48629;SDS011;34426;52.180;4.462;2022-12-18T10:09:02;34.70;;;21.55;;
48629;SDS011;34426;52.180;4.462;2022-12-18T10:11:43;32.70;;;21.85;;
48629;SDS011;34426;52.180;4.462;2022-12-18T10:14:15;33.22;;;21.20;;
48629;SDS011;34426;52.180;4.462;2022-12-18T10:16:52;36.15;;;23.17;;
48629;SDS011;34426;52.180;4.462;2022-12-18T10:19:29;33.17;;;22.60;;
48629;SDS011;34426;52.180;4.462;2022-12-18T10:22:08;37.53;;;21.90;;
48629;SDS011;34426;52.180;4.462;2022-12-18T10:24:46;35.90;;;22.40;;
48629;SDS011;34426;52.180;4.462;2022-12-18T10:27:24;32.97;;;21.63;;
48629;SDS011;34426;52.180;4.462;2022-12-18T10:29:52;38.15;;;22.38;;
48629;SDS011;34426;52.180;4.462;2022-12-18T10:32:21;32.95;;;21.30;;
48629;SDS011;34426;52.180;4.462;2022-12-18T10:34:50;33.90;;;21.27;;
48629;SDS011;34426;52.180;4.462;2022-12-18T10:37:19;35.00;;;22.15;;
48629;SDS011;34426;52.180;4.462;2022-12-18T10:39:48;35.22;;;21.50;;
48629;SDS011;34426;52.180;4.462;2022-12-18T10:42:36;36.08;;;22.10;;
48629;SDS011;34426;52.180;4.462;2022-12-18T10:45:05;37.13;;;20.23;;
48629;SDS011;34426;52.180;4.462;2022-12-18T10:50:10;39.42;;;22.25;;
48629;SDS011;34426;52.180;4.462;2022-12-18T10:52:55;34.22;;;20.33;;
48629;SDS011;34426;52.180;4.462;2022-12-18T10:55:30;32.92;;;20.17;;
48629;SDS011;34426;52.180;4.462;2022-12-18T10:58:04;32.65;;;21.27;;
48629;SDS011;34426;52.180;4.462;2022-12-18T11:00:41;33.15;;;21.60;;
48629;SDS011;34426;52.180;4.462;2022-12-18T11:03:07;34.88;;;20.17;;
48629;SDS011;34426;52.180;4.462;2022-12-18T11:06:01;36.35;;;21.60;;
48629;SDS011;34426;52.180;4.462;2022-12-18T11:08:30;32.22;;;21.02;;
48629;SDS011;34426;52.180;4.462;2022-12-18T11:10:56;39.75;;;21.23;;
48629;SDS011;34426;52.180;4.462;2022-12-18T11:13:26;37.35;;;21.80;;
48629;SDS011;34426;52.180;4.462;2022-12-18T11:15:55;36.17;;;22.55;;
48629;SDS011;34426;52.180;4.462;2022-12-18T11:18:25;32.45;;;21.50;;
48629;SDS011;34426;52.180;4.462;2022-12-18T11:20:54;36.17;;;22.50;;
48629;SDS011;34426;52.180;4.462;2022-12-18T11:23:25;34.42;;;20.80;;
48629;SDS011;34426;52.180;4.462;2022-12-18T11:25:54;33.85;;;21.83;;
48629;SDS011;34426;52.180;4.462;2022-12-18T11:28:36;35.25;;;21.10;;
48629;SDS011;34426;52.180;4.462;2022-12-18T11:31:20;34.90;;;21.48;;
48629;SDS011;34426;52.180;4.462;2022-12-18T11:33:55;36.08;;;19.83;;
48629;SDS011;34426;52.180;4.462;2022-12-18T11:36:29;32.63;;;20.60;;
48629;SDS011;34426;52.180;4.462;2022-12-18T11:38:59;31.25;;;19.75;;
48629;SDS011;34426;52.180;4.462;2022-12-18T11:41:37;28.38;;;18.63;;
48629;SDS011;34426;52.180;4.462;2022-12-18T11:44:13;30.65;;;20.58;;
48629;SDS011;34426;52.180;4.462;2022-12-18T11:46:47;30.70;;;19.35;;
48629;SDS011;34426;52.180;4.462;2022-12-18T11:49:24;31.55;;;21.15;;
48629;SDS011;34426;52.180;4.462;2022-12-18T11:51:56;29.35;;;19.98;;
48629;SDS011;34426;52.180;4.462;2022-12-18T11:54:28;30.23;;;18.85;;
48629;SDS011;34426;52.180;4.462;2022-12-18T11:56:56;32.63;;;20.83;;
48629;SDS011;34426;52.180;4.462;2022-12-18T11:59:35;31.90;;;19.73;;
48629;SDS011;34426;52.180;4.462;2022-12-18T12:02:13;31.10;;;19.00;;
48629;SDS011;34426;52.180;4.462;2022-12-18T12:05:01;30.23;;;19.42;;
48629;SDS011;34426;52.180;4.462;2022-12-18T12:07:44;34.13;;;20.67;;
48629;SDS011;34426;52.180;4.462;2022-12-18T12:10:20;33.40;;;20.40;;
48629;SDS011;34426;52.180;4.462;2022-12-18T12:13:00;32.17;;;19.63;;
48629;SDS011;34426;52.180;4.462;2022-12-18T12:15:48;28.30;;;18.90;;
48629;SDS011;34426;52.180;4.462;2022-12-18T12:18:25;32.67;;;20.70;;
48629;SDS011;34426;52.180;4.462;2022-12-18T12:21:04;31.77;;;19.48;;
48629;SDS011;34426;52.180;4.462;2022-12-18T12:23:37;27.17;;;18.48;;
48629;SDS011;34426;52.180;4.462;2022-12-18T12:26:14;31.98;;;19.77;;
48629;SDS011;34426;52.180;4.462;2022-12-18T12:28:58;34.15;;;21.08;;
48629;SDS011;34426;52.180;4.462;2022-12-18T12:31:41;30.67;;;19.90;;
48629;SDS011;34426;52.180;4.462;2022-12-18T12:34:25;30.52;;;20.00;;
48629;SDS011;34426;52.180;4.462;2022-12-18T12:37:03;29.23;;;19.33;;
48629;SDS011;34426;52.180;4.462;2022-12-18T12:39:40;37.97;;;22.35;;
48629;SDS011;34426;52.180;4.462;2022-12-18T12:42:12;32.15;;;20.98;;
48629;SDS011;34426;52.180;4.462;2022-12-18T12:44:45;33.47;;;19.58;;
48629;SDS011;34426;52.180;4.462;2022-12-18T12:49:47;29.95;;;19.92;;
48629;SDS011;34426;52.180;4.462;2022-12-18T12:52:16;30.85;;;20.27;;
48629;SDS011;34426;52.180;4.462;2022-12-18T12:54:49;30.23;;;19.88;;
48629;SDS011;34426;52.180;4.462;2022-12-18T12:57:19;29.90;;;20.10;;
48629;SDS011;34426;52.180;4.462;2022-12-18T12:59:51;29.15;;;18.95;;
48629;SDS011;34426;52.180;4.462;2022-12-18T13:02:29;32.30;;;19.70;;
48629;SDS011;34426;52.180;4.462;2022-12-18T13:05:02;35.25;;;20.65;;
48629;SDS011;34426;52.180;4.462;2022-12-18T13:07:38;33.80;;;20.10;;
48629;SDS011;34426;52.180;4.462;2022-12-18T13:10:13;31.98;;;19.25;;
48629;SDS011;34426;52.180;4.462;2022-12-18T13:12:53;32.53;;;19.83;;
48629;SDS011;34426;52.180;4.462;2022-12-18T13:15:22;34.58;;;21.33;;
48629;SDS011;34426;52.180;4.462;2022-12-18T13:18:04;28.20;;;19.20;;
48629;SDS011;34426;52.180;4.462;2022-12-18T13:20:42;32.22;;;19.83;;
48629;SDS011;34426;52.180;4.462;2022-12-18T13:23:27;31.75;;;21.10;;
48629;SDS011;34426;52.180;4.462;2022-12-18T13:25:57;30.63;;;19.85;;
48629;SDS011;34426;52.180;4.462;2022-12-18T13:31:57;30.50;;;19.30;;
48629;SDS011;34426;52.180;4.462;2022-12-18T13:34:35;32.88;;;20.13;;
48629;SDS011;34426;52.180;4.462;2022-12-18T13:43:14;29.45;;;18.50;;
48629;SDS011;34426;52.180;4.462;2022-12-18T13:45:46;31.15;;;19.85;;
48629;SDS011;34426;52.180;4.462;2022-12-18T13:48:17;28.90;;;19.13;;
48629;SDS011;34426;52.180;4.462;2022-12-18T13:50:49;29.55;;;18.50;;
48629;SDS011;34426;52.180;4.462;2022-12-18T13:53:20;30.67;;;19.88;;
48629;SDS011;34426;52.180;4.462;2022-12-18T13:55:49;29.08;;;19.55;;
48629;SDS011;34426;52.180;4.462;2022-12-18T13:58:15;30.38;;;19.38;;
48629;SDS011;34426;52.180;4.462;2022-12-18T14:00:41;32.42;;;20.58;;
48629;SDS011;34426;52.180;4.462;2022-12-18T14:03:15;38.92;;;20.48;;
48629;SDS011;34426;52.180;4.462;2022-12-18T14:05:43;34.08;;;20.42;;
48629;SDS011;34426;52.180;4.462;2022-12-18T14:08:11;27.63;;;19.17;;
48629;SDS011;34426;52.180;4.462;2022-12-18T14:10:40;29.48;;;18.75;;
48629;SDS011;34426;52.180;4.462;2022-12-18T14:13:09;27.88;;;19.17;;
48629;SDS011;34426;52.180;4.462;2022-12-18T14:18:13;28.75;;;19.25;;
48629;SDS011;34426;52.180;4.462;2022-12-18T14:20:47;32.83;;;20.17;;
48629;SDS011;34426;52.180;4.462;2022-12-18T14:23:27;31.38;;;19.75;;
48629;SDS011;34426;52.180;4.462;2022-12-18T14:25:56;31.35;;;20.83;;
48629;SDS011;34426;52.180;4.462;2022-12-18T14:28:24;34.55;;;20.40;;
48629;SDS011;34426;52.180;4.462;2022-12-18T14:30:51;28.95;;;19.48;;
48629;SDS011;34426;52.180;4.462;2022-12-18T14:33:20;31.23;;;20.65;;
48629;SDS011;34426;52.180;4.462;2022-12-18T14:35:53;31.70;;;19.80;;
48629;SDS011;34426;52.180;4.462;2022-12-18T14:38:23;33.05;;;21.02;;
48629;SDS011;34426;52.180;4.462;2022-12-18T14:40:55;35.50;;;22.77;;
48629;SDS011;34426;52.180;4.462;2022-12-18T14:43:27;32.90;;;19.50;;
48629;SDS011;34426;52.180;4.462;2022-12-18T14:45:57;32.38;;;20.15;;
48629;SDS011;34426;52.180;4.462;2022-12-18T14:48:32;32.72;;;20.00;;
48629;SDS011;34426;52.180;4.462;2022-12-18T14:51:03;31.10;;;20.42;;
48629;SDS011;34426;52.180;4.462;2022-12-18T14:53:37;34.50;;;20.88;;
48629;SDS011;34426;52.180;4.462;2022-12-18T14:56:13;30.02;;;20.38;;
48629;SDS011;34426;52.180;4.462;2022-12-18T14:58:46;30.58;;;19.60;;
48629;SDS011;34426;52.180;4.462;2022-12-18T15:01:18;31.55;;;21.00;;